Latest Weather Observations for Nhill Aerodrome

IDV60801

Issued at 4:02 pm EST Thursday 25 August 2016 (issued every 30 minutes, with the page automatically refreshed every 10 minutes)

About weather observations | Map of weather stations | Latest weather observations for VIC | Other Formats
Station Details ID: 078015 Name: NHILL AERODROME Lat: -36.31 Lon: 141.65 Height: 138.9 m
Data from the previous 72 hours. | See also: Recent months at Nhill Aerodrome
Date/Time
EST
Temp
°C
App
Temp
°C
Dew
Point
°C
Rel
Hum
%
Delta-T
°C
Wind Press
QNH
hPa
Press
MSL
hPa
Rain since
9am
mm
Dir  Spd
km/h
Gust
km/h
Spd
kts
Gust
kts
25/04:00pm 12.0 6.6 2.7 53 4.1 SW 20 37 11 20 1017.8 1018.0 0.0
25/03:30pm 13.1 8.4 1.1 44 5.1 SSW 15 28 8 15 1017.6 1017.8 0.0
25/03:00pm 13.2 8.0 3.6 52 4.3 SSW 20 28 11 15 1017.7 1017.9 0.0
25/02:30pm 12.5 8.4 4.2 57 3.8 SSW 15 20 8 11 1017.6 1017.8 0.0
25/02:00pm 13.6 8.6 3.4 50 4.6 WSW 19 30 10 16 1017.4 1017.6 0.0
25/01:30pm 12.5 8.2 5.2 61 3.4 S 17 24 9 13 1017.6 1017.8 0.0
25/01:00pm 11.1 6.2 5.0 66 2.8 SW 20 26 11 14 1017.9 1018.1 0.0
25/12:30pm 12.0 6.7 5.0 62 3.2 SSW 22 30 12 16 1018.1 1018.3 0.0
25/12:00pm 12.1 7.1 3.6 56 3.8 SSW 19 26 10 14 1018.2 1018.4 0.0
25/11:30am 12.0 7.7 5.2 63 3.2 SSW 17 24 9 13 1018.3 1018.5 0.0
25/11:00am 10.9 6.8 6.1 72 2.2 SW 17 24 9 13 1018.3 1018.5 0.0
25/10:30am 10.4 6.0 6.4 76 1.9 SW 19 24 10 13 1018.3 1018.5 0.0
25/10:00am 9.7 5.1 6.4 80 1.5 WSW 20 26 11 14 1018.2 1018.4 0.0
25/09:30am 8.3 4.1 5.6 83 1.2 WSW 17 24 9 13 1018.1 1018.3 0.0
25/09:00am 7.2 3.3 5.3 88 0.8 WSW 15 20 8 11 1017.9 1018.1 0.0
25/08:30am 6.7 2.7 5.0 89 0.8 WSW 15 20 8 11 1017.7 1017.9 0.0
25/08:00am 5.3 2.0 4.3 93 0.4 WSW 11 15 6 8 1017.7 1017.9 0.0
25/07:30am 3.7 0.8 2.8 94 0.4 W 7 9 4 5 1017.3 1017.5 0.0
25/07:00am 2.9 0.8 2.0 94 0.4 SSW 2 6 1 3 1017.1 1017.3 0.0
25/06:30am 2.7 -0.1 1.8 94 0.4 SSW 6 7 3 4 1016.7 1016.9 0.0
25/06:00am 2.6 -0.2 1.9 95 0.3 SSW 6 7 3 4 1016.2 1016.4 0.0
25/05:30am 2.3 -0.6 1.6 95 0.3 SSW 6 6 3 3 1016.1 1016.3 0.0
25/05:00am 2.2 -0.7 1.5 95 0.3 SSW 6 7 3 4 1015.9 1016.1 0.0
25/04:30am 2.2 -0.7 1.3 94 0.3 SSW 6 7 3 4 1015.8 1016.0 0.0
25/04:00am 2.0 -1.0 1.1 94 0.3 SSW 6 7 3 4 1015.8 1016.0 0.0
25/03:30am 2.1 -1.0 1.2 94 0.3 SSW 7 9 4 5 1015.9 1016.1 0.0
25/03:00am 2.3 -0.6 1.4 94 0.3 SSW 6 7 3 4 1016.0 1016.2 0.0
25/02:30am 2.4 -0.1 1.5 94 0.3 SSW 4 7 2 4 1015.9 1016.1 0.0
25/02:00am 2.4 -0.7 1.4 93 0.4 SSW 7 9 4 5 1016.0 1016.2 0.0
25/01:30am 3.0 0.2 2.0 93 0.4 S 6 7 3 4 1016.2 1016.4 0.0
25/01:00am 3.1 0.3 2.1 93 0.4 S 6 7 3 4 1016.1 1016.3 0.0
25/12:30am 2.9 -0.1 1.9 93 0.4 S 7 9 4 5 1016.1 1016.3 0.0
25/12:00am 3.0 0.0 2.0 93 0.4 S 7 9 4 5 1016.1 1016.3 0.0
 
Date/Time
EST
Temp
°C
App
Temp
°C
Dew
Point
°C
Rel
Hum
%
Delta-T
°C
Wind Press
QNH
hPa
Press
MSL
hPa
Rain since
9am
mm
Dir  Spd
km/h
Gust
km/h
Spd
kts
Gust
kts
24/11:30pm 2.9 -0.9 1.7 92 0.5 S 11 11 6 6 1016.1 1016.3 0.0
24/11:00pm 2.9 -0.9 1.6 91 0.5 S 11 13 6 7 1016.1 1016.3 0.0
24/10:30pm 3.3 -0.5 1.8 90 0.6 S 11 13 6 7 1016.1 1016.3 0.0
24/10:00pm 3.5 0.1 1.9 89 0.6 S 9 11 5 6 1016.0 1016.2 0.0
24/09:30pm 3.5 -0.4 1.4 86 0.8 SSW 11 13 6 7 1015.9 1016.1 0.0
24/09:00pm 4.2 0.3 1.4 82 1.1 S 11 11 6 6 1015.8 1016.0 0.0
24/08:30pm 4.7 0.9 1.6 80 1.2 S 11 13 6 7 1015.7 1015.9 0.0
24/08:00pm 5.6 2.5 1.5 75 1.6 S 7 7 4 4 1015.6 1015.7 0.0
24/07:30pm 5.8 2.4 1.7 75 1.7 S 9 11 5 6 1015.3 1015.4 0.0
24/07:00pm 5.7 1.9 2.0 77 1.5 S 11 11 6 6 1015.0 1015.1 0.0
24/06:30pm 6.3 2.3 2.6 77 1.5 SSW 13 13 7 7 1014.8 1014.9 0.0
24/06:00pm 7.9 3.5 2.6 69 2.2 S 15 19 8 10 1014.5 1014.6 0.0
24/05:30pm 8.7 4.3 2.9 67 2.5 SSW 15 17 8 9 1014.4 1014.5 0.0
24/05:00pm 10.6 5.2 2.2 56 3.6 S 20 28 11 15 1014.1 1014.2 0.0
24/04:30pm 10.9 5.9 3.5 60 3.3 S 19 26 10 14 1014.0 1014.1 0.0
24/04:00pm 12.5 7.3 3.7 55 4.0 S 20 28 11 15 1013.9 1014.0 0.0
24/03:30pm 12.9 7.8 1.0 44 5.1 SSW 17 24 9 13 1013.9 1014.0 0.0
24/03:00pm 12.6 9.4 3.0 52 4.3 SSW 9 15 5 8 1014.1 1014.2 0.0
24/02:30pm 13.6 10.9 5.5 58 3.8 SSW 9 17 5 9 1014.2 1014.3 0.0
24/02:00pm 11.7 8.3 4.0 59 3.5 SSE 11 17 6 9 1014.4 1014.5 0.0
24/01:30pm 12.7 9.2 3.4 53 4.2 WSW 11 19 6 10 1014.6 1014.7 0.0
24/01:00pm 12.1 10.2 3.1 54 4.0 NNE 2 9 1 5 1014.9 1015.0 0.0
24/12:30pm 11.1 8.1 3.9 61 3.2 SSE 9 13 5 7 1015.3 1015.4 0.0
24/12:00pm 11.6 9.0 4.1 60 3.4 ESE 7 11 4 6 1015.6 1015.7 0.0
24/11:30am 11.0 6.7 3.3 59 3.4 SE 15 20 8 11 1015.9 1016.1 0.0
24/11:00am 11.0 6.7 5.1 67 2.7 E 17 20 9 11 1016.0 1016.2 0.0
24/10:30am 10.2 6.3 5.2 71 2.3 ESE 15 20 8 11 1016.1 1016.3 0.0
24/10:00am 9.2 4.8 5.0 75 1.9 ESE 17 20 9 11 1016.2 1016.4 0.0
24/09:30am 8.1 3.3 4.7 79 1.5 ESE 19 24 10 13 1016.5 1016.7 0.0
24/09:00am 5.2 2.1 3.5 89 0.7 SSE 9 9 5 5 1016.7 1016.9 0.0
24/08:30am 3.5 0.2 2.3 92 0.5 SSE 9 11 5 6 1016.7 1016.9 0.0
24/08:00am 2.2 -0.9 1.5 95 0.3 SSE 7 7 4 4 1016.6 1016.8 0.0
24/07:30am 0.8 -2.5 -0.1 94 0.3 SSE 7 9 4 5 1016.4 1016.6 0.0
24/07:00am 1.1 -0.9 0.1 93 0.4 CALM 0 6 0 3 1016.2 1016.4 0.0
24/06:30am 1.4 -2.2 0.4 93 0.4 SSE 9 11 5 6 1015.9 1016.1 0.0
24/06:00am 1.3 -2.3 0.3 93 0.4 SSE 9 11 5 6 1015.7 1015.9 0.0
24/05:30am 1.6 -2.0 0.4 92 0.4 SSE 9 13 5 7 1015.7 1015.9 0.0
24/05:00am 1.9 -2.1 0.7 92 0.5 SSE 11 13 6 7 1015.6 1015.7 0.0
24/04:30am 2.3 -0.9 0.8 90 0.6 SE 7 9 4 5 1015.5 1015.6 0.0
24/04:00am 2.5 -1.0 1.2 91 0.5 SSE 9 13 5 7 1015.5 1015.6 0.0
24/03:30am 3.3 0.4 1.7 89 0.6 SE 6 9 3 5 1015.5 1015.6 0.0
24/03:00am 3.4 0.3 1.6 88 0.7 SE 7 9 4 5 1015.8 1016.0 0.0
24/02:30am 2.5 -1.1 0.9 89 0.6 SE 9 9 5 5 1016.1 1016.3 0.0
24/02:00am 4.4 0.3 2.3 86 0.8 E 13 17 7 9 1016.2 1016.4 0.0
24/01:30am 3.9 0.5 1.9 87 0.8 ESE 9 11 5 6 1016.4 1016.6 0.0
24/01:00am 3.6 0.5 1.5 86 0.8 ESE 7 9 4 5 1016.4 1016.6 0.0
24/12:30am 4.1 0.7 1.8 85 0.9 E 9 11 5 6 1016.6 1016.8 0.0
24/12:00am 4.9 1.2 2.3 83 1.1 E 11 11 6 6 1016.8 1017.0 0.0
 
Date/Time
EST
Temp
°C
App
Temp
°C
Dew
Point
°C
Rel
Hum
%
Delta-T
°C
Wind Press
QNH
hPa
Press
MSL
hPa
Rain since
9am
mm
Dir  Spd
km/h
Gust
km/h
Spd
kts
Gust
kts
23/11:30pm 4.6 1.8 2.1 84 1.0 SE 6 9 3 5 1016.8 1017.0 0.0
23/11:00pm 5.7 1.7 2.9 82 1.2 ESE 13 17 7 9 1017.0 1017.2 0.0
23/10:30pm 6.0 1.7 3.3 83 1.1 SE 15 17 8 9 1016.9 1017.1 0.0
23/10:00pm 5.4 1.4 3.1 85 1.0 SE 13 13 7 7 1017.0 1017.2 0.0
23/09:30pm 5.6 2.8 3.1 84 1.0 SE 7 11 4 6 1017.0 1017.2 0.0
23/09:00pm 5.8 2.3 3.6 86 0.9 SSE 11 11 6 6 1016.8 1017.0 0.0
23/08:30pm 5.8 1.9 3.6 86 0.9 SSE 13 15 7 8 1016.5 1016.7 0.0
23/08:00pm 6.6 3.2 3.9 83 1.2 SSE 11 13 6 7 1016.4 1016.6 0.0
23/07:30pm 7.5 3.8 4.5 81 1.3 SE 13 15 7 8 1016.2 1016.4 0.0
23/07:00pm 8.7 5.6 5.4 80 1.5 ESE 11 11 6 6 1016.2 1016.4 0.0
23/06:30pm 9.8 7.5 5.8 76 1.8 SSE 7 9 4 5 1016.1 1016.3 0.0
23/06:00pm 10.8 8.3 6.6 75 2.0 ESE 9 11 5 6 1016.1 1016.3 0.0
23/05:30pm 12.2 9.8 6.9 70 2.6 ESE 9 11 5 6 1016.1 1016.3 0.0
23/05:00pm 13.7 12.7 5.8 59 3.8 CALM 0 6 0 3 1016.0 1016.2 0.0
23/04:30pm 14.0 11.6 5.1 55 4.2 ENE 7 11 4 6 1016.0 1016.2 0.0
23/04:00pm 12.9 10.2 5.6 61 3.4 ESE 9 17 5 9 1016.0 1016.2 0.0
23/03:30pm 13.5 10.9 5.9 60 3.6 SE 9 13 5 7 1015.9 1016.1 0.0
23/03:00pm 14.6 12.2 4.3 50 4.8 E 6 15 3 8 1016.0 1016.2 0.0
23/02:30pm 13.8 10.9 4.9 55 4.2 ESE 9 15 5 8 1016.2 1016.4 0.0
23/02:00pm 14.3 11.9 5.4 55 4.2 NNE 7 15 4 8 1016.2 1016.4 0.0
23/01:30pm 13.1 10.3 5.3 59 3.7 SSE 9 15 5 8 1016.3 1016.5 0.0
23/01:00pm 13.2 11.0 6.3 63 3.3 ESE 7 11 4 6 1016.5 1016.7 0.0
23/12:30pm 11.8 8.9 6.3 69 2.6 SE 11 15 6 8 1016.7 1016.9 0.0
23/12:00pm 11.6 8.4 6.9 73 2.3 ESE 13 17 7 9 1016.9 1017.1 0.0
23/11:30am 11.0 7.8 6.7 75 2.0 ESE 13 20 7 11 1017.1 1017.3 0.0
23/11:00am 11.4 7.9 7.1 75 2.1 E 15 20 8 11 1017.4 1017.6 0.0
23/10:30am 10.4 5.8 6.4 76 1.9 E 20 26 11 14 1017.3 1017.5 0.0
23/10:00am 9.9 5.5 7.2 83 1.3 ESE 20 26 11 14 1017.2 1017.4 0.0
23/09:30am 8.9 5.1 7.5 91 0.7 SE 17 26 9 14 1017.0 1017.2 0.0
23/09:00am 6.7 3.8 6.6 99 0.0 SSE 11 15 6 8 1017.0 1017.2 0.8
23/08:30am 4.9 2.0 4.8 99 0.0 SSE 9 13 5 7 1017.2 1017.4 0.8
23/08:00am 3.4 1.6 3.3 99 0.0 SSE 2 7 1 4 1017.3 1017.5 0.8
23/07:30am 2.8 -0.1 2.7 99 0.0 SSE 7 9 4 5 1017.0 1017.2 0.8
23/07:00am 1.8 -1.3 1.5 98 0.1 SSE 7 9 4 5 1016.8 1017.0 0.8
23/06:30am 1.9 -1.5 1.6 98 0.1 SSE 9 9 5 5 1016.5 1016.7 0.8
23/06:00am 2.9 1.3 2.6 98 0.1 CALM 0 0 0 0 1016.3 1016.5 0.8
23/05:30am 2.6 -0.7 2.3 98 0.1 SSE 9 13 5 7 1016.0 1016.2 0.8
23/05:00am 2.8 -0.5 2.5 98 0.1 SSE 9 11 5 6 1015.8 1016.0 0.8
23/04:30am 2.8 -0.5 2.5 98 0.1 SSE 9 9 5 5 1015.6 1015.7 0.8
23/04:00am 3.3 0.7 3.0 98 0.1 SSE 6 7 3 4 1015.5 1015.6 0.8
23/03:30am 3.5 -0.1 3.2 98 0.1 SSE 11 13 6 7 1015.4 1015.5 0.8
23/03:00am 3.5 0.3 3.2 98 0.1 SSE 9 11 5 6 1015.4 1015.5 0.8
23/02:30am 3.9 1.4 3.6 98 0.1 SSE 6 7 3 4 1015.5 1015.6 0.6
23/02:00am 4.4 1.0 4.1 98 0.1 SSE 11 13 6 7 1015.7 1015.9 0.6
23/01:30am 4.8 1.1 4.5 98 0.1 SSE 13 17 7 9 1015.8 1016.0 0.6
23/01:00am 4.9 1.2 4.5 97 0.2 SSE 13 15 7 8 1015.8 1016.0 0.6
23/12:30am 4.7 1.4 4.3 97 0.2 SSE 11 13 6 7 1015.7 1015.9 0.6
23/12:00am 4.1 1.0 3.5 96 0.2 S 9 11 5 6 1015.5 1015.6 0.6
 
Date/Time
EST
Temp
°C
App
Temp
°C
Dew
Point
°C
Rel
Hum
%
Delta-T
°C
Wind Press
QNH
hPa
Press
MSL
hPa
Rain since
9am
mm
Dir  Spd
km/h
Gust
km/h
Spd
kts
Gust
kts
22/11:30pm 5.2 1.9 4.6 96 0.3 S 11 11 6 6 1015.5 1015.6 0.6
22/11:00pm 6.0 3.6 5.4 96 0.3 SSW 7 9 4 5 1015.6 1015.7 0.6
22/10:30pm 5.6 4.5 4.9 95 0.3 CALM 0 0 0 0 1015.6 1015.7 0.6
22/10:00pm 5.8 4.7 4.9 94 0.4 CALM 0 0 0 0 1015.4 1015.5 0.6
22/09:30pm 6.8 4.7 5.7 93 0.5 WNW 6 9 3 5 1015.3 1015.4 0.6
22/09:00pm 7.4 5.4 6.3 93 0.5 W 6 9 3 5 1015.0 1015.1 0.6
22/08:30pm 7.3 5.3 6.1 92 0.5 SW 6 7 3 4 1014.7 1014.8 0.6
22/08:00pm 8.2 6.2 7.0 92 0.6 S 7 9 4 5 1014.4 1014.5 0.6
22/07:30pm 8.3 5.9 6.9 91 0.7 S 9 11 5 6 1014.2 1014.3 0.6
22/07:00pm 9.1 6.0 7.4 89 0.8 S 13 17 7 9 1013.9 1014.0 0.6
22/06:30pm 10.1 6.6 7.3 83 1.3 WSW 15 17 8 9 1013.8 1013.9 0.6
22/06:00pm 10.6 5.9 6.0 73 2.1 W 20 28 11 15 1013.3 1013.4 0.6
22/05:30pm 12.6 10.0 7.9 73 2.3 WSW 11 15 6 8 1013.0 1013.2 0.6
22/05:00pm 12.8 11.3 8.3 74 2.2 WSW 6 7 3 4 1012.7 1012.9 0.6
22/04:30pm 13.0 10.1 8.1 72 2.4 WSW 13 19 7 10 1012.5 1012.7 0.6

Other Formats:

Comma delimited format used in spreadsheet applications
http://www.bom.gov.au/fwo/IDV60801/IDV60801.94827.axf

JavaScript Object Notation format (JSON) in row-major order
http://www.bom.gov.au/fwo/IDV60801/IDV60801.94827.json